createdAt,value
2023-02-24T00:00:55.305Z,29.92
2023-02-24T00:02:04.738Z,32.30
2023-02-24T00:03:11.151Z,26.05
2023-02-24T00:04:13.782Z,28.33
2023-02-24T00:05:16.567Z,28.85
2023-02-24T00:06:18.473Z,29.48
2023-02-24T00:07:21.358Z,31.60
2023-02-24T00:08:23.112Z,25.50
2023-02-24T00:09:27.720Z,27.55
2023-02-24T00:10:29.973Z,28.02
2023-02-24T00:11:33.058Z,30.23
2023-02-24T00:12:35.026Z,31.48
2023-02-24T00:13:37.943Z,27.00
2023-02-24T00:14:41.473Z,28.92
2023-02-24T00:15:44.222Z,32.78
2023-02-24T00:16:47.157Z,27.10
2023-02-24T00:17:51.320Z,25.73
2023-02-24T00:18:53.147Z,29.88
2023-02-24T00:19:56.088Z,26.27
2023-02-24T00:21:03.960Z,27.23
2023-02-24T00:22:08.529Z,28.15
2023-02-24T00:23:10.334Z,29.13
2023-02-24T00:24:13.190Z,27.80
2023-02-24T00:25:15.105Z,25.77
2023-02-24T00:26:18.473Z,30.38
2023-02-24T00:27:20.283Z,25.45
2023-02-24T00:28:23.051Z,31.30
2023-02-24T00:29:26.207Z,28.88
2023-02-24T00:30:30.117Z,26.40
2023-02-24T00:31:33.596Z,27.90
2023-02-24T00:32:36.440Z,30.10
2023-02-24T00:33:41.017Z,29.38
2023-02-24T00:34:43.340Z,29.38
2023-02-24T00:35:47.352Z,29.30
2023-02-24T00:36:49.454Z,26.33
2023-02-24T00:37:54.374Z,28.63
2023-02-24T00:38:57.573Z,25.85
2023-02-24T00:40:00.339Z,29.88
2023-02-24T00:41:07.997Z,27.23
2023-02-24T00:42:12.349Z,29.85
2023-02-24T00:43:14.227Z,30.48
2023-02-24T00:44:16.973Z,29.27
2023-02-24T00:45:18.870Z,32.72
2023-02-24T00:46:25.675Z,28.50
2023-02-24T00:47:27.454Z,29.27
2023-02-24T00:48:31.634Z,30.48
2023-02-24T00:49:42.007Z,25.35
2023-02-24T00:50:44.934Z,28.95
2023-02-24T00:51:48.687Z,26.63
2023-02-24T00:52:52.454Z,24.30
2023-02-24T00:53:56.936Z,30.33
2023-02-24T00:54:59.835Z,28.92
2023-02-24T00:56:07.071Z,28.67
2023-02-24T00:57:10.240Z,25.40
2023-02-24T00:58:12.102Z,28.90
2023-02-24T00:59:16.647Z,26.65
2023-02-24T01:00:19.813Z,29.95
2023-02-24T01:01:24.321Z,25.73
2023-02-24T01:02:26.691Z,28.52
2023-02-24T01:03:29.733Z,25.15
2023-02-24T01:04:53.228Z,29.00
2023-02-24T01:05:56.541Z,27.50
2023-02-24T01:07:00.217Z,25.98
2023-02-24T01:08:03.273Z,30.15
2023-02-24T01:09:08.253Z,29.42
2023-02-24T01:10:12.544Z,29.92
2023-02-24T01:11:33.155Z,27.83
2023-02-24T01:12:38.681Z,25.77
2023-02-24T01:13:40.542Z,33.58
2023-02-24T01:14:45.567Z,28.55
2023-02-24T01:15:48.686Z,30.17
2023-02-24T01:16:51.595Z,30.38
2023-02-24T01:17:54.312Z,29.27
2023-02-24T01:18:56.460Z,27.90
2023-02-24T01:20:15.922Z,30.23
2023-02-24T01:21:19.872Z,28.80
2023-02-24T01:22:23.838Z,27.42
2023-02-24T01:23:26.027Z,29.15
2023-02-24T01:24:29.529Z,28.92
2023-02-24T01:25:31.352Z,27.90
2023-02-24T01:26:34.336Z,28.15
2023-02-24T01:27:37.148Z,30.17
2023-02-24T01:28:40.070Z,29.52
2023-02-24T01:29:41.869Z,28.33
2023-02-24T01:30:45.055Z,28.77
2023-02-24T01:31:49.517Z,26.45
2023-02-24T01:32:54.099Z,29.73
2023-02-24T01:33:56.394Z,26.05
2023-02-24T01:35:00.621Z,27.63
2023-02-24T01:36:09.413Z,26.58
2023-02-24T01:37:16.357Z,26.70
2023-02-24T01:38:23.047Z,25.05
2023-02-24T01:39:26.168Z,25.98
2023-02-24T01:40:29.151Z,30.75
2023-02-24T01:41:31.447Z,27.73
2023-02-24T01:42:33.321Z,28.90
2023-02-24T01:43:58.800Z,30.30
2023-02-24T01:45:06.636Z,28.40
2023-02-24T01:46:13.487Z,27.05
2023-02-24T01:47:16.206Z,24.48
2023-02-24T01:48:21.887Z,27.75
2023-02-24T01:49:29.418Z,29.60
2023-02-24T01:50:35.838Z,28.35
2023-02-24T01:51:41.964Z,26.25
2023-02-24T01:52:46.964Z,25.83
2023-02-24T01:53:49.383Z,28.33
2023-02-24T01:54:56.397Z,27.45
2023-02-24T01:55:59.345Z,25.15
2023-02-24T01:57:01.868Z,24.73
2023-02-24T01:58:07.228Z,24.20
2023-02-24T01:59:10.084Z,25.80
2023-02-24T02:00:32.604Z,26.65
2023-02-24T02:01:40.574Z,26.85
2023-02-24T02:02:47.396Z,25.80
2023-02-24T02:03:49.898Z,25.70
2023-02-24T02:04:57.273Z,27.67
2023-02-24T02:06:05.229Z,27.13
2023-02-24T02:07:09.967Z,23.73
2023-02-24T02:08:14.465Z,25.35
2023-02-24T02:09:16.513Z,27.40
2023-02-24T02:10:19.375Z,28.10
2023-02-24T02:11:22.847Z,29.13
2023-02-24T02:12:25.006Z,26.77
2023-02-24T02:13:28.893Z,28.13
2023-02-24T02:14:31.385Z,26.95
2023-02-24T02:15:37.912Z,27.30
2023-02-24T02:16:58.756Z,23.88
2023-02-24T02:18:06.834Z,23.77
2023-02-24T02:19:32.026Z,27.40
2023-02-24T02:21:05.048Z,29.35
2023-02-24T02:22:17.011Z,25.20
2023-02-24T02:23:33.895Z,26.65
2023-02-24T02:24:52.880Z,28.88
2023-02-24T02:26:09.646Z,24.88
2023-02-24T02:27:29.633Z,24.73
2023-02-24T02:28:45.437Z,22.63
2023-02-24T02:30:24.422Z,29.13
2023-02-24T02:31:50.787Z,26.75
2023-02-24T02:33:27.680Z,24.55
2023-02-24T02:34:38.068Z,24.75
2023-02-24T02:35:46.388Z,24.73
2023-02-24T02:36:55.793Z,27.20
2023-02-24T02:38:03.310Z,26.10
2023-02-24T02:39:13.009Z,26.15
2023-02-24T02:40:19.341Z,30.15
2023-02-24T02:41:28.378Z,26.23
2023-02-24T02:42:34.125Z,25.70
2023-02-24T02:43:41.422Z,23.58
2023-02-24T02:45:05.649Z,28.90
2023-02-24T02:46:14.903Z,24.88
2023-02-24T02:47:24.870Z,23.67
2023-02-24T02:48:31.166Z,31.50
2023-02-24T02:49:38.821Z,25.85
2023-02-24T02:50:45.914Z,25.52
2023-02-24T02:51:52.604Z,23.35
2023-02-24T02:52:58.371Z,22.40
2023-02-24T02:54:03.332Z,23.80
2023-02-24T02:55:08.311Z,24.63
2023-02-24T02:56:14.181Z,24.25
2023-02-24T02:57:18.778Z,25.90
2023-02-24T02:58:26.215Z,26.48
2023-02-24T02:59:29.921Z,24.98
2023-02-24T03:00:35.228Z,24.98
2023-02-24T03:01:39.103Z,29.85
2023-02-24T03:02:46.414Z,29.00
2023-02-24T03:03:51.524Z,21.35
2023-02-24T03:04:59.662Z,25.60
2023-02-24T03:06:04.119Z,25.40
2023-02-24T03:07:07.620Z,25.33
2023-02-24T03:08:11.553Z,26.23
2023-02-24T03:09:19.437Z,25.83
2023-02-24T03:10:27.830Z,25.73
2023-02-24T03:11:32.489Z,25.20
2023-02-24T03:12:34.397Z,25.38
2023-02-24T03:13:41.028Z,27.33
2023-02-24T03:14:50.985Z,26.25
2023-02-24T03:15:54.726Z,24.00
2023-02-24T03:16:58.971Z,25.08
2023-02-24T03:18:10.175Z,24.25
2023-02-24T03:19:13.849Z,26.10
2023-02-24T03:20:22.537Z,26.40
2023-02-24T03:21:29.383Z,24.00
2023-02-24T03:22:35.417Z,24.95
2023-02-24T03:23:40.895Z,24.85
2023-02-24T03:24:44.506Z,24.92
2023-02-24T03:25:58.688Z,29.45
2023-02-24T03:27:08.189Z,21.52
2023-02-24T03:28:16.595Z,20.92
2023-02-24T03:29:24.312Z,24.23
2023-02-24T03:30:32.462Z,23.02
2023-02-24T03:31:41.007Z,24.05
2023-02-24T03:32:54.952Z,22.77
2023-02-24T03:34:03.810Z,22.90
2023-02-24T03:35:11.085Z,26.15
2023-02-24T03:36:16.086Z,23.42
2023-02-24T03:37:25.494Z,24.77
2023-02-24T03:38:30.850Z,24.80
2023-02-24T03:39:33.213Z,25.58
2023-02-24T03:40:43.875Z,22.58
2023-02-24T03:41:56.135Z,27.70
2023-02-24T03:43:05.373Z,22.88
2023-02-24T03:44:11.021Z,22.50
2023-02-24T03:45:16.285Z,30.02
2023-02-24T03:46:18.581Z,28.08
2023-02-24T03:47:21.807Z,25.73
2023-02-24T03:48:25.171Z,28.55
2023-02-24T03:49:28.264Z,29.35
2023-02-24T03:50:32.097Z,28.33
2023-02-24T03:51:39.648Z,29.73
2023-02-24T03:52:47.386Z,27.17
2023-02-24T03:54:01.778Z,27.95
2023-02-24T03:55:21.285Z,30.80
2023-02-24T03:56:30.180Z,30.90
2023-02-24T03:57:54.718Z,29.10
2023-02-24T03:59:25.167Z,30.35
2023-02-24T04:00:35.274Z,34.30
2023-02-24T04:01:44.572Z,27.45
2023-02-24T04:02:51.123Z,30.75
2023-02-24T04:04:00.316Z,32.03
2023-02-24T04:05:24.411Z,30.40
2023-02-24T04:06:35.829Z,26.58
2023-02-24T04:07:43.965Z,25.70
2023-02-24T04:08:48.817Z,29.17
2023-02-24T04:09:58.140Z,28.65
2023-02-24T04:11:05.185Z,28.35
2023-02-24T04:12:17.217Z,28.65
2023-02-24T04:13:28.300Z,29.85
2023-02-24T04:14:35.908Z,28.98
2023-02-24T04:15:43.679Z,25.15
2023-02-24T04:16:54.128Z,32.03
2023-02-24T04:17:57.666Z,30.83
2023-02-24T04:19:05.957Z,28.88
2023-02-24T04:20:13.494Z,30.35
2023-02-24T04:21:22.723Z,27.13
2023-02-24T04:22:26.602Z,32.95
2023-02-24T04:23:33.019Z,28.88
2023-02-24T04:24:36.338Z,31.80
2023-02-24T04:25:39.945Z,33.35
2023-02-24T04:27:02.234Z,28.88
2023-02-24T04:28:10.057Z,35.83
2023-02-24T04:29:19.533Z,30.08
2023-02-24T04:30:23.897Z,34.03
2023-02-24T04:31:27.611Z,31.88
2023-02-24T04:32:31.603Z,37.13
2023-02-24T04:33:33.793Z,36.40
2023-02-24T04:34:37.530Z,36.67
2023-02-24T04:35:40.487Z,36.10
2023-02-24T04:36:49.456Z,36.20
2023-02-24T04:37:52.528Z,38.10
2023-02-24T04:38:56.784Z,41.97
2023-02-24T04:39:58.729Z,35.63
2023-02-24T04:41:04.430Z,35.72
2023-02-24T04:42:06.683Z,38.22
2023-02-24T04:43:09.735Z,40.08
2023-02-24T04:44:11.701Z,37.92
2023-02-24T04:45:16.471Z,35.97
2023-02-24T04:46:18.921Z,41.55
2023-02-24T04:47:22.277Z,40.03
2023-02-24T04:48:24.028Z,40.88
2023-02-24T04:49:27.035Z,35.40
2023-02-24T04:50:30.718Z,42.42
2023-02-24T04:51:33.964Z,38.47
2023-02-24T04:52:35.757Z,36.45
2023-02-24T04:53:38.803Z,37.08
2023-02-24T04:54:44.479Z,37.58
2023-02-24T04:55:49.246Z,36.30
2023-02-24T04:56:51.781Z,38.10
2023-02-24T04:57:54.841Z,35.15
2023-02-24T04:58:57.001Z,34.63
2023-02-24T04:59:59.828Z,34.97
2023-02-24T05:01:08.735Z,34.55
2023-02-24T05:02:13.220Z,31.40
2023-02-24T05:03:16.769Z,33.20
2023-02-24T05:04:19.778Z,34.28
2023-02-24T05:05:25.503Z,31.33
2023-02-24T05:06:28.378Z,38.80
2023-02-24T05:07:30.152Z,32.95
2023-02-24T05:08:33.925Z,34.13
2023-02-24T05:09:35.984Z,39.85
2023-02-24T05:10:43.407Z,39.33
2023-02-24T05:11:49.055Z,38.70
2023-02-24T05:12:51.004Z,42.35
2023-02-24T05:13:53.931Z,37.85
2023-02-24T05:14:55.663Z,39.78
2023-02-24T05:16:00.036Z,37.47
2023-02-24T05:17:03.302Z,41.72
2023-02-24T05:18:07.708Z,43.50
2023-02-24T05:19:28.488Z,37.63
2023-02-24T05:20:48.621Z,44.85
2023-02-24T05:21:51.561Z,45.85
2023-02-24T05:22:53.519Z,43.72
2023-02-24T05:23:59.145Z,47.35
2023-02-24T05:25:01.259Z,41.78
2023-02-24T05:26:08.562Z,40.75
2023-02-24T05:27:10.526Z,42.38
2023-02-24T05:28:13.669Z,47.63
2023-02-24T05:29:15.426Z,43.17
2023-02-24T05:30:19.088Z,42.05
2023-02-24T05:31:40.476Z,41.08
2023-02-24T05:32:42.798Z,45.85
2023-02-24T05:33:48.389Z,42.83
2023-02-24T05:34:51.805Z,41.90
2023-02-24T05:35:53.608Z,43.35
2023-02-24T05:36:56.374Z,38.58
2023-02-24T05:37:59.211Z,42.08
2023-02-24T05:39:07.774Z,44.45
2023-02-24T05:40:14.693Z,41.03
2023-02-24T05:41:19.054Z,42.70
2023-02-24T05:42:21.947Z,44.28
2023-02-24T05:43:26.177Z,41.38
2023-02-24T05:44:28.928Z,38.63
2023-02-24T05:45:31.505Z,36.60
2023-02-24T05:46:36.587Z,42.90
2023-02-24T05:47:40.103Z,34.17
2023-02-24T05:48:43.882Z,41.67
2023-02-24T05:49:48.050Z,40.83
2023-02-24T05:50:52.245Z,37.20
2023-02-24T05:51:57.461Z,40.95
2023-02-24T05:52:59.259Z,38.80
2023-02-24T05:54:04.696Z,40.10
2023-02-24T05:55:07.295Z,42.15
2023-02-24T05:56:10.239Z,45.17
2023-02-24T05:57:16.968Z,50.42
2023-02-24T05:58:19.778Z,43.60
2023-02-24T05:59:21.634Z,42.40
2023-02-24T06:00:25.930Z,38.88
2023-02-24T06:01:30.221Z,39.20
2023-02-24T06:02:37.575Z,45.55
2023-02-24T06:03:41.346Z,47.15
2023-02-24T06:04:53.792Z,46.92
2023-02-24T06:05:55.633Z,45.13
2023-02-24T06:06:58.378Z,50.22
2023-02-24T06:08:06.214Z,42.70
2023-02-24T06:09:10.944Z,48.30
2023-02-24T06:10:15.245Z,45.50
2023-02-24T06:11:19.229Z,41.85
2023-02-24T06:12:28.022Z,44.40
2023-02-24T06:13:29.803Z,41.08
2023-02-24T06:14:34.128Z,44.17
2023-02-24T06:15:37.491Z,42.25
2023-02-24T06:16:43.487Z,42.13
2023-02-24T06:17:45.407Z,37.35
2023-02-24T06:18:49.847Z,42.70
2023-02-24T06:19:54.198Z,43.58
2023-02-24T06:20:56.025Z,37.50
2023-02-24T06:22:01.620Z,40.35
2023-02-24T06:23:05.331Z,44.20
2023-02-24T06:24:14.393Z,37.88
2023-02-24T06:25:18.485Z,41.15
2023-02-24T06:26:21.627Z,39.95
2023-02-24T06:27:25.454Z,41.30
2023-02-24T06:28:28.420Z,45.08
2023-02-24T06:29:30.694Z,42.30
2023-02-24T06:30:33.554Z,45.17
2023-02-24T06:31:35.459Z,42.00
2023-02-24T06:32:38.520Z,49.88
2023-02-24T06:33:41.013Z,37.70
2023-02-24T06:34:43.744Z,40.25
2023-02-24T06:35:45.496Z,37.92
2023-02-24T06:36:49.030Z,39.00
2023-02-24T06:37:50.848Z,40.88
2023-02-24T06:38:54.206Z,36.55
2023-02-24T06:39:56.197Z,40.67
2023-02-24T06:40:59.036Z,39.95
2023-02-24T06:42:03.895Z,37.40
2023-02-24T06:43:10.102Z,37.00
2023-02-24T06:44:11.840Z,41.65
2023-02-24T06:45:15.219Z,36.80
2023-02-24T06:46:17.478Z,36.40
2023-02-24T06:47:22.633Z,35.85
2023-02-24T06:48:24.640Z,41.17
2023-02-24T06:49:27.722Z,40.63
2023-02-24T06:50:30.958Z,42.78
2023-02-24T06:51:33.701Z,44.20
2023-02-24T06:52:36.873Z,48.53
2023-02-24T06:53:43.557Z,43.30
2023-02-24T06:54:48.677Z,41.92
2023-02-24T06:56:14.845Z,38.88
2023-02-24T06:57:18.061Z,38.67
2023-02-24T06:58:24.195Z,39.53
2023-02-24T06:59:28.751Z,39.33
2023-02-24T07:00:38.830Z,37.30
2023-02-24T07:01:45.306Z,39.78
2023-02-24T07:02:48.248Z,37.00
2023-02-24T07:04:17.585Z,39.10
2023-02-24T07:05:24.170Z,41.17
2023-02-24T07:06:28.536Z,35.95
2023-02-24T07:07:31.308Z,38.00
2023-02-24T07:08:33.163Z,42.17
2023-02-24T07:09:36.450Z,40.85
2023-02-24T07:10:39.154Z,39.05
2023-02-24T07:11:46.611Z,42.88
2023-02-24T07:12:48.565Z,38.20
2023-02-24T07:13:54.537Z,38.90
2023-02-24T07:14:57.270Z,38.22
2023-02-24T07:16:00.217Z,40.30
2023-02-24T07:17:03.696Z,40.90
2023-02-24T07:18:07.188Z,37.15
2023-02-24T07:19:13.923Z,41.13
2023-02-24T07:20:26.138Z,38.95
2023-02-24T07:21:30.221Z,36.95
2023-02-24T07:22:33.062Z,36.03
2023-02-24T07:23:34.897Z,32.40
2023-02-24T07:24:40.487Z,38.97
2023-02-24T07:25:43.391Z,40.90
2023-02-24T07:26:52.030Z,35.15
2023-02-24T07:27:53.788Z,36.75
2023-02-24T07:28:58.066Z,40.72
2023-02-24T07:29:59.855Z,33.75
2023-02-24T07:31:08.403Z,33.58
2023-02-24T07:32:11.707Z,35.17
2023-02-24T07:33:14.242Z,37.83
2023-02-24T07:34:23.485Z,32.80
2023-02-24T07:35:25.681Z,36.75
2023-02-24T07:36:30.194Z,34.72
2023-02-24T07:37:34.828Z,36.67
2023-02-24T07:38:37.241Z,34.08
2023-02-24T07:39:42.892Z,34.20
2023-02-24T07:40:46.855Z,36.35
2023-02-24T07:41:49.993Z,32.10
2023-02-24T07:42:54.078Z,35.90
2023-02-24T07:43:59.622Z,34.03
2023-02-24T07:45:01.497Z,34.83
2023-02-24T07:46:09.182Z,34.40
2023-02-24T07:47:11.977Z,35.92
2023-02-24T07:48:15.635Z,34.25
2023-02-24T07:49:19.839Z,39.25
2023-02-24T07:50:23.719Z,37.20
2023-02-24T07:51:27.368Z,36.45
2023-02-24T07:52:32.483Z,39.15
2023-02-24T07:53:34.381Z,41.75
2023-02-24T07:54:39.275Z,45.08
2023-02-24T07:55:42.352Z,34.70
2023-02-24T07:56:48.825Z,41.63
2023-02-24T07:57:51.704Z,34.78
2023-02-24T07:58:59.224Z,37.67
2023-02-24T08:00:16.915Z,40.63
2023-02-24T08:01:23.750Z,40.72
2023-02-24T08:02:25.685Z,37.22
2023-02-24T08:03:30.159Z,39.08
2023-02-24T08:04:33.445Z,42.13
2023-02-24T08:05:36.497Z,37.60
2023-02-24T08:06:46.154Z,41.25
2023-02-24T08:07:50.495Z,36.38
2023-02-24T08:08:59.719Z,41.65
2023-02-24T08:10:14.231Z,37.50
2023-02-24T08:11:16.399Z,40.88
2023-02-24T08:12:21.728Z,35.50
2023-02-24T08:13:23.804Z,38.15
2023-02-24T08:14:32.710Z,39.63
2023-02-24T08:15:35.987Z,44.78
2023-02-24T08:16:40.597Z,43.63
2023-02-24T08:17:44.101Z,44.97
2023-02-24T08:18:48.993Z,41.75
2023-02-24T08:20:12.841Z,41.85
2023-02-24T08:21:16.607Z,45.30
2023-02-24T08:22:24.059Z,39.67
2023-02-24T08:23:26.781Z,42.75
2023-02-24T08:24:30.016Z,42.80
2023-02-24T08:25:36.521Z,42.63
2023-02-24T08:26:45.053Z,40.28
2023-02-24T08:28:06.708Z,43.53
2023-02-24T08:29:10.434Z,48.15
2023-02-24T08:30:23.375Z,45.17
2023-02-24T08:31:27.898Z,41.28
2023-02-24T08:32:34.085Z,49.80
2023-02-24T08:33:37.377Z,44.25
2023-02-24T08:34:39.510Z,50.88
2023-02-24T08:35:44.720Z,44.95
2023-02-24T08:36:55.742Z,44.35
2023-02-24T08:38:01.693Z,46.67
2023-02-24T08:39:04.877Z,45.33
2023-02-24T08:40:29.383Z,47.60
2023-02-24T08:41:45.876Z,48.92
2023-02-24T08:42:50.042Z,45.65
2023-02-24T08:43:52.828Z,44.28
2023-02-24T08:44:54.807Z,46.10
2023-02-24T08:45:59.481Z,48.10
2023-02-24T08:47:05.211Z,50.75
2023-02-24T08:48:18.294Z,48.92
2023-02-24T08:49:24.880Z,49.25
2023-02-24T08:50:31.314Z,48.17
2023-02-24T08:51:36.369Z,43.47
2023-02-24T08:52:40.183Z,49.50
2023-02-24T08:53:43.425Z,44.65
2023-02-24T08:54:49.222Z,43.80
2023-02-24T08:55:51.810Z,51.15
2023-02-24T08:56:56.850Z,45.65
2023-02-24T08:58:01.660Z,49.03
2023-02-24T08:59:06.388Z,50.70
2023-02-24T09:00:10.863Z,47.05
2023-02-24T09:01:18.991Z,43.53
2023-02-24T09:02:27.418Z,54.95
2023-02-24T09:03:30.108Z,44.33
2023-02-24T09:04:34.509Z,44.42
2023-02-24T09:05:39.076Z,48.33
2023-02-24T09:06:44.738Z,45.35
2023-02-24T09:07:54.524Z,51.33
2023-02-24T09:09:15.922Z,48.40
2023-02-24T09:10:20.298Z,47.55
2023-02-24T09:11:23.305Z,48.47
2023-02-24T09:12:29.002Z,44.42
2023-02-24T09:13:33.065Z,46.25
2023-02-24T09:14:37.528Z,48.20
2023-02-24T09:15:41.776Z,45.38
2023-02-24T09:17:02.113Z,50.25
2023-02-24T09:18:08.319Z,49.40
2023-02-24T09:19:40.369Z,46.25
2023-02-24T09:21:16.080Z,47.95
2023-02-24T09:22:31.374Z,44.72
2023-02-24T09:23:45.845Z,44.95
2023-02-24T09:24:50.965Z,44.28
2023-02-24T09:25:54.334Z,60.20
2023-02-24T09:26:58.611Z,49.80
2023-02-24T09:28:08.398Z,51.33
2023-02-24T09:29:33.064Z,48.67
2023-02-24T09:30:37.578Z,56.08
2023-02-24T09:31:55.280Z,50.55
2023-02-24T09:33:01.240Z,47.47
2023-02-24T09:34:05.612Z,66.22
2023-02-24T09:35:07.914Z,121.45
2023-02-24T09:36:13.735Z,51.72
2023-02-24T09:37:24.923Z,162.10
2023-02-24T09:38:57.803Z,61.08
2023-02-24T09:40:14.628Z,100.97
2023-02-24T09:41:33.662Z,99.60
2023-02-24T09:42:46.416Z,43.25
2023-02-24T09:43:59.844Z,91.85
2023-02-24T09:45:04.987Z,48.25
2023-02-24T09:46:14.729Z,54.72
2023-02-24T09:47:30.948Z,44.15
2023-02-24T09:48:44.632Z,48.70
2023-02-24T09:49:56.387Z,49.88
2023-02-24T09:51:05.194Z,67.00
2023-02-24T09:52:16.852Z,59.80
2023-02-24T09:53:19.893Z,46.55
2023-02-24T09:54:24.436Z,62.38
2023-02-24T09:55:35.753Z,54.10
2023-02-24T09:56:42.644Z,50.60
2023-02-24T09:58:12.036Z,53.58
2023-02-24T09:59:26.294Z,47.63
2023-02-24T10:00:33.545Z,94.55
2023-02-24T10:01:47.861Z,66.65
2023-02-24T10:03:00.188Z,77.35
2023-02-24T10:04:20.231Z,68.40
2023-02-24T10:05:28.760Z,59.35
2023-02-24T10:06:36.564Z,47.03
2023-02-24T10:07:41.807Z,48.95
2023-02-24T10:08:50.725Z,43.67
2023-02-24T10:10:02.278Z,47.08
2023-02-24T10:11:08.552Z,65.57
2023-02-24T10:12:17.209Z,59.97
2023-02-24T10:13:30.264Z,62.33
2023-02-24T10:14:43.704Z,42.25
2023-02-24T10:16:09.267Z,41.30
2023-02-24T10:17:30.491Z,45.00
2023-02-24T10:18:37.918Z,51.90
2023-02-24T10:19:41.580Z,45.47
2023-02-24T10:20:45.702Z,41.90
2023-02-24T10:22:02.825Z,52.22
2023-02-24T10:23:09.738Z,49.10
2023-02-24T10:24:15.691Z,40.15
2023-02-24T10:25:36.650Z,48.80
2023-02-24T10:26:59.531Z,53.83
2023-02-24T10:28:13.219Z,46.00
2023-02-24T10:29:23.009Z,45.53
2023-02-24T10:30:41.056Z,44.92
2023-02-24T10:31:48.019Z,40.45
2023-02-24T10:32:53.383Z,43.10
2023-02-24T10:33:58.706Z,49.42
2023-02-24T10:35:01.521Z,45.42
2023-02-24T10:36:11.489Z,39.15
2023-02-24T10:37:27.624Z,41.63
2023-02-24T10:38:34.076Z,47.25
2023-02-24T10:39:36.980Z,46.45
2023-02-24T10:40:46.763Z,40.60
2023-02-24T10:41:57.204Z,40.20
2023-02-24T10:43:10.440Z,38.30
2023-02-24T10:44:16.420Z,41.13
2023-02-24T10:45:24.751Z,37.97
2023-02-24T10:46:41.068Z,36.33
2023-02-24T10:47:46.387Z,36.20
2023-02-24T10:49:00.428Z,42.90
2023-02-24T10:50:05.287Z,45.58
2023-02-24T10:51:20.092Z,36.08
2023-02-24T10:52:37.568Z,38.58
2023-02-24T10:53:39.475Z,39.15
2023-02-24T10:55:05.105Z,35.78
2023-02-24T10:56:26.919Z,36.13
2023-02-24T10:57:42.618Z,37.35
2023-02-24T10:59:20.487Z,39.70
2023-02-24T11:00:51.609Z,38.35
2023-02-24T11:02:01.117Z,36.40
2023-02-24T11:03:10.436Z,38.60
2023-02-24T11:04:32.845Z,38.45
2023-02-24T11:05:44.388Z,38.67
2023-02-24T11:06:55.480Z,44.88
2023-02-24T11:08:10.933Z,36.92
2023-02-24T11:09:29.266Z,38.95
2023-02-24T11:10:43.018Z,37.28
2023-02-24T11:12:04.759Z,40.53
2023-02-24T11:13:25.205Z,39.92
2023-02-24T11:14:45.693Z,36.17
2023-02-24T11:16:07.600Z,40.85
2023-02-24T11:17:20.989Z,35.70
2023-02-24T11:18:24.798Z,37.75
2023-02-24T11:19:32.482Z,38.20
2023-02-24T11:20:48.455Z,33.55
2023-02-24T11:21:55.688Z,34.28
2023-02-24T11:22:57.848Z,35.03
2023-02-24T11:24:03.112Z,37.75
2023-02-24T11:25:07.524Z,35.65
2023-02-24T11:26:16.799Z,33.78
2023-02-24T11:27:21.860Z,34.92
2023-02-24T11:28:34.132Z,33.38
2023-02-24T11:29:45.058Z,31.13
2023-02-24T11:30:54.614Z,32.75
2023-02-24T11:32:11.636Z,32.33
2023-02-24T11:33:24.749Z,40.47
2023-02-24T11:34:33.267Z,32.80
2023-02-24T11:35:38.708Z,35.58
2023-02-24T11:36:46.164Z,33.33
2023-02-24T11:38:00.422Z,32.47
2023-02-24T11:39:19.267Z,35.97
2023-02-24T11:40:26.689Z,27.92
2023-02-24T11:41:31.228Z,26.05
2023-02-24T11:42:38.906Z,23.90
2023-02-24T11:43:43.600Z,27.25
2023-02-24T11:44:53.813Z,25.35
2023-02-24T11:46:01.185Z,31.63
2023-02-24T11:47:07.792Z,28.92
2023-02-24T11:48:15.975Z,24.92
2023-02-24T11:49:27.300Z,33.42
2023-02-24T11:50:36.124Z,24.17
2023-02-24T11:51:38.148Z,22.92
2023-02-24T11:52:46.913Z,24.70
2023-02-24T11:53:53.220Z,22.98
2023-02-24T11:54:58.662Z,24.90
2023-02-24T11:56:03.136Z,27.98
2023-02-24T11:57:09.322Z,25.40
2023-02-24T11:58:17.152Z,24.30
2023-02-24T11:59:23.258Z,25.08
2023-02-24T12:00:27.986Z,28.52
2023-02-24T12:01:33.716Z,25.83
2023-02-24T12:02:42.003Z,28.80
2023-02-24T12:03:54.658Z,27.08
2023-02-24T12:05:00.627Z,27.95
2023-02-24T12:06:10.892Z,25.58
2023-02-24T12:07:19.338Z,23.05
2023-02-24T12:08:26.806Z,23.55
2023-02-24T12:09:33.074Z,24.58
2023-02-24T12:10:37.810Z,25.17
2023-02-24T12:11:46.084Z,24.55
2023-02-24T12:12:52.793Z,24.80
2023-02-24T12:14:03.137Z,24.40
2023-02-24T12:15:15.553Z,22.25
2023-02-24T12:16:21.315Z,23.50
2023-02-24T12:17:29.249Z,20.92
2023-02-24T12:18:35.365Z,20.73
2023-02-24T12:19:44.578Z,20.55
2023-02-24T12:20:49.922Z,19.10
2023-02-24T12:21:53.714Z,18.50
2023-02-24T12:22:58.386Z,20.90
2023-02-24T12:24:21.277Z,21.92
2023-02-24T12:25:27.954Z,18.23
2023-02-24T12:26:42.585Z,22.17
2023-02-24T12:27:54.740Z,21.13
2023-02-24T12:29:20.045Z,20.13
2023-02-24T12:30:57.638Z,18.83
2023-02-24T12:32:06.596Z,20.83
2023-02-24T12:33:31.832Z,17.50
2023-02-24T12:34:43.376Z,20.63
2023-02-24T12:35:48.225Z,18.05
2023-02-24T12:37:07.597Z,20.42
2023-02-24T12:38:31.776Z,21.98
2023-02-24T12:39:40.234Z,19.17
2023-02-24T12:40:51.339Z,20.17
2023-02-24T12:42:01.198Z,23.13
2023-02-24T12:43:13.690Z,18.73
2023-02-24T12:44:24.194Z,18.42
2023-02-24T12:45:34.150Z,19.48
2023-02-24T12:46:38.133Z,18.60
2023-02-24T12:47:48.369Z,19.70
2023-02-24T12:49:15.552Z,22.15
2023-02-24T12:50:25.410Z,29.63
2023-02-24T12:51:30.668Z,23.92
2023-02-24T12:52:42.740Z,23.70
2023-02-24T12:53:49.774Z,22.35
2023-02-24T12:54:56.702Z,23.20
2023-02-24T12:56:05.039Z,20.90
2023-02-24T12:57:11.833Z,26.33
2023-02-24T12:58:18.690Z,29.40
2023-02-24T12:59:24.367Z,34.35
2023-02-24T13:00:56.157Z,26.52
2023-02-24T13:02:01.673Z,26.67
2023-02-24T13:03:09.500Z,28.08
2023-02-24T13:04:23.364Z,26.52
2023-02-24T13:05:31.030Z,26.85
2023-02-24T13:06:42.890Z,26.23
2023-02-24T13:07:59.945Z,28.55
2023-02-24T13:09:08.595Z,25.73
2023-02-24T13:10:20.283Z,27.80
2023-02-24T13:11:31.248Z,28.92
2023-02-24T13:12:37.535Z,26.55
2023-02-24T13:13:44.805Z,27.90
2023-02-24T13:14:48.662Z,26.85
2023-02-24T13:15:52.665Z,28.27
2023-02-24T13:17:05.312Z,30.15
2023-02-24T13:18:11.317Z,28.17
2023-02-24T13:19:22.460Z,26.83
2023-02-24T13:20:31.485Z,30.30
2023-02-24T13:21:34.168Z,30.33
2023-02-24T13:22:41.972Z,31.00
2023-02-24T13:23:53.461Z,30.13
2023-02-24T13:24:59.053Z,27.05
2023-02-24T13:26:01.038Z,25.45
2023-02-24T13:27:22.220Z,27.00
2023-02-24T13:28:26.110Z,27.83
2023-02-24T13:29:27.923Z,29.90
2023-02-24T13:30:41.492Z,27.10
2023-02-24T13:31:47.022Z,29.08
2023-02-24T13:32:59.958Z,28.15
2023-02-24T13:34:32.932Z,24.98
2023-02-24T13:35:37.517Z,26.77
2023-02-24T13:36:47.632Z,27.23
2023-02-24T13:37:49.789Z,27.23
2023-02-24T13:38:53.476Z,28.38
2023-02-24T13:39:55.763Z,28.83
2023-02-24T13:41:08.230Z,28.25
2023-02-24T13:42:23.674Z,31.75
2023-02-24T13:43:28.824Z,25.30
2023-02-24T13:44:31.887Z,32.80
2023-02-24T13:45:35.615Z,30.77
2023-02-24T13:46:52.041Z,36.30
2023-02-24T13:48:15.177Z,28.88
2023-02-24T13:49:25.136Z,28.52
2023-02-24T13:50:31.853Z,25.88
2023-02-24T13:51:47.606Z,32.30
2023-02-24T13:53:03.752Z,27.27
2023-02-24T13:54:17.761Z,31.70
2023-02-24T13:55:29.875Z,31.50
2023-02-24T13:56:38.944Z,29.13
2023-02-24T13:57:53.374Z,28.98
2023-02-24T13:59:08.492Z,32.15
2023-02-24T14:00:22.398Z,30.85
2023-02-24T14:01:34.282Z,33.83
2023-02-24T14:02:38.683Z,32.70
2023-02-24T14:03:44.174Z,33.17
2023-02-24T14:04:47.972Z,44.03
2023-02-24T14:05:51.396Z,41.67
2023-02-24T14:06:57.460Z,35.88
2023-02-24T14:07:59.554Z,37.53
2023-02-24T14:09:03.801Z,35.88
2023-02-24T14:10:15.953Z,38.38
2023-02-24T14:11:19.140Z,43.60
2023-02-24T14:12:24.502Z,42.58
2023-02-24T14:13:33.908Z,37.17
2023-02-24T14:14:35.793Z,37.42
2023-02-24T14:15:41.189Z,37.78
2023-02-24T14:16:48.078Z,45.92
2023-02-24T14:17:56.220Z,45.28
2023-02-24T14:19:01.665Z,41.95
2023-02-24T14:20:19.586Z,39.20
2023-02-24T14:21:24.406Z,41.20
2023-02-24T14:22:27.216Z,39.42
2023-02-24T14:23:31.561Z,42.50
2023-02-24T14:24:34.545Z,43.45
2023-02-24T14:25:40.518Z,44.42
2023-02-24T14:26:45.690Z,44.60
2023-02-24T14:27:49.992Z,45.58
2023-02-24T14:28:57.592Z,45.95
2023-02-24T14:30:00.601Z,43.75
2023-02-24T14:31:08.271Z,45.80